createdAt,value
2018-05-13T00:00:10.743Z,15.53
2018-05-13T00:02:38.281Z,15.48
2018-05-13T00:05:05.867Z,15.37
2018-05-13T00:07:33.439Z,15.34
2018-05-13T00:10:00.987Z,15.38
2018-05-13T00:12:28.515Z,15.47
2018-05-13T00:14:56.047Z,15.49
2018-05-13T00:17:23.621Z,15.41
2018-05-13T00:19:51.174Z,15.28
2018-05-13T00:22:18.706Z,15.19
2018-05-13T00:24:46.271Z,15.24
2018-05-13T00:27:13.836Z,15.25
2018-05-13T00:29:41.376Z,15.13
2018-05-13T00:32:08.919Z,15.21
2018-05-13T00:34:36.467Z,15.13
2018-05-13T00:37:04.010Z,15.10
2018-05-13T00:39:31.537Z,14.91
2018-05-13T00:41:59.079Z,14.83
2018-05-13T00:44:26.661Z,14.77
2018-05-13T00:46:54.195Z,14.72
2018-05-13T00:49:21.756Z,14.73
2018-05-13T00:51:49.298Z,14.78
2018-05-13T00:54:28.488Z,14.81
2018-05-13T00:56:56.028Z,14.79
2018-05-13T00:59:23.553Z,14.78
2018-05-13T01:01:51.110Z,14.74
2018-05-13T01:04:18.645Z,14.70
2018-05-13T01:06:46.187Z,14.70
2018-05-13T01:09:13.718Z,14.82
2018-05-13T01:11:41.259Z,14.78
2018-05-13T01:14:08.815Z,14.69
2018-05-13T01:16:36.391Z,14.57
2018-05-13T01:19:03.930Z,14.69
2018-05-13T01:21:31.499Z,14.69
2018-05-13T01:23:59.039Z,14.72
2018-05-13T01:26:26.597Z,14.70
2018-05-13T01:28:54.128Z,14.68
2018-05-13T01:31:21.679Z,14.66
2018-05-13T01:33:49.211Z,14.77
2018-05-13T01:36:16.787Z,14.77
2018-05-13T01:38:44.332Z,14.76
2018-05-13T01:41:11.886Z,14.76
2018-05-13T01:43:39.422Z,14.82
2018-05-13T01:46:06.987Z,14.83
2018-05-13T01:48:34.564Z,14.81
2018-05-13T01:51:02.095Z,14.86
2018-05-13T01:53:29.666Z,14.83
2018-05-13T01:55:57.206Z,14.80
2018-05-13T01:58:24.770Z,14.69
2018-05-13T02:00:52.346Z,14.80
2018-05-13T02:03:19.885Z,14.80
2018-05-13T02:05:47.459Z,14.84
2018-05-13T02:08:15.008Z,14.75
2018-05-13T02:10:42.600Z,14.78
2018-05-13T02:13:10.125Z,14.75
2018-05-13T02:15:37.660Z,14.66
2018-05-13T02:18:05.192Z,14.58
2018-05-13T02:20:32.754Z,14.68
2018-05-13T02:23:00.336Z,14.68
2018-05-13T02:25:27.851Z,14.71
2018-05-13T02:27:55.403Z,14.63
2018-05-13T02:30:22.956Z,14.56
2018-05-13T02:32:50.452Z,14.54
2018-05-13T02:35:18.013Z,14.62
2018-05-13T02:37:45.583Z,14.65
2018-05-13T02:40:13.091Z,14.59
2018-05-13T02:42:40.591Z,14.53
2018-05-13T02:45:08.114Z,14.47
2018-05-13T02:47:35.619Z,14.44
2018-05-13T02:50:03.185Z,14.54
2018-05-13T02:52:30.696Z,14.43
2018-05-13T02:54:58.246Z,14.45
2018-05-13T02:57:25.795Z,14.41
2018-05-13T02:59:53.315Z,14.49
2018-05-13T03:02:20.833Z,14.43
2018-05-13T03:04:48.344Z,14.42
2018-05-13T03:07:15.853Z,14.47
2018-05-13T03:09:43.377Z,14.40
2018-05-13T03:12:10.915Z,14.39
2018-05-13T03:14:38.422Z,14.39
2018-05-13T03:17:05.936Z,14.50
2018-05-13T03:19:33.457Z,14.40
2018-05-13T03:22:00.969Z,14.42
2018-05-13T03:24:28.490Z,14.40
2018-05-13T03:26:56.001Z,14.39
2018-05-13T03:29:23.511Z,14.56
2018-05-13T03:31:51.016Z,14.54
2018-05-13T03:34:18.543Z,14.18
2018-05-13T03:36:46.102Z,14.62
2018-05-13T03:39:13.621Z,14.54
2018-05-13T03:41:41.125Z,14.62
2018-05-13T03:44:08.644Z,14.66
2018-05-13T03:46:36.201Z,14.64
2018-05-13T03:49:03.703Z,14.53
2018-05-13T03:51:31.233Z,14.66
2018-05-13T03:53:58.741Z,14.67
2018-05-13T03:56:26.253Z,14.87
2018-05-13T03:58:53.782Z,14.73
2018-05-13T04:01:21.283Z,14.77
2018-05-13T04:03:48.791Z,14.76
2018-05-13T04:06:16.314Z,14.81
2018-05-13T04:08:55.515Z,14.80
2018-05-13T04:11:34.807Z,15.05
2018-05-13T04:14:14.238Z,14.94
2018-05-13T04:16:41.751Z,15.28
2018-05-13T04:19:09.333Z,15.29
2018-05-13T04:21:36.866Z,15.44
2018-05-13T04:24:04.442Z,15.09
2018-05-13T04:26:31.992Z,14.93
2018-05-13T04:29:00.376Z,14.98
2018-05-13T04:31:27.892Z,14.98
2018-05-13T04:33:55.395Z,15.14
2018-05-13T04:36:22.928Z,15.35
2018-05-13T04:38:50.439Z,15.47
2018-05-13T04:41:17.987Z,15.32
2018-05-13T04:43:45.497Z,15.56
2018-05-13T04:46:13.642Z,15.84
2018-05-13T04:48:41.170Z,16.15
2018-05-13T04:51:08.693Z,16.08
2018-05-13T04:53:36.222Z,16.04
2018-05-13T04:56:03.747Z,16.14
2018-05-13T04:58:31.311Z,15.81
2018-05-13T05:00:58.858Z,16.05
2018-05-13T05:03:26.372Z,16.38
2018-05-13T05:05:53.943Z,16.43
2018-05-13T05:08:21.464Z,16.72
2018-05-13T05:10:48.988Z,16.59
2018-05-13T05:13:16.595Z,17.01
2018-05-13T05:15:44.480Z,17.28
2018-05-13T05:18:11.993Z,17.01
2018-05-13T05:20:39.540Z,17.06
2018-05-13T05:23:07.055Z,17.02
2018-05-13T05:25:34.636Z,16.88
2018-05-13T05:28:02.177Z,17.17
2018-05-13T05:30:29.748Z,17.96
2018-05-13T05:32:57.330Z,18.22
2018-05-13T05:35:25.983Z,20.04
2018-05-13T05:37:53.489Z,19.55
2018-05-13T05:40:20.994Z,17.90
2018-05-13T05:42:48.515Z,16.96
2018-05-13T05:45:17.182Z,17.11
2018-05-13T05:47:44.731Z,17.80
2018-05-13T05:50:12.256Z,18.05
2018-05-13T05:52:39.783Z,17.48
2018-05-13T05:55:07.302Z,17.54
2018-05-13T05:57:34.841Z,17.62
2018-05-13T06:00:02.419Z,17.60
2018-05-13T06:02:29.930Z,17.72
2018-05-13T06:04:57.442Z,17.60
2018-05-13T06:07:24.974Z,18.43
2018-05-13T06:09:52.510Z,17.95
2018-05-13T06:12:20.105Z,17.32
2018-05-13T06:14:47.582Z,17.84
2018-05-13T06:17:15.132Z,17.60
2018-05-13T06:19:42.690Z,17.58
2018-05-13T06:22:10.180Z,17.89
2018-05-13T06:24:37.748Z,18.05
2018-05-13T06:27:05.284Z,18.38
2018-05-13T06:29:32.795Z,18.39
2018-05-13T06:32:00.403Z,18.92
2018-05-13T06:34:28.004Z,19.26
2018-05-13T06:36:55.521Z,18.76
2018-05-13T06:39:23.036Z,18.91
2018-05-13T06:41:50.568Z,18.87
2018-05-13T06:44:18.109Z,18.67
2018-05-13T06:46:45.659Z,18.86
2018-05-13T06:49:13.170Z,19.07
2018-05-13T06:51:40.682Z,18.80
2018-05-13T06:54:08.471Z,18.99
2018-05-13T06:56:36.045Z,19.22
2018-05-13T06:59:03.988Z,19.34
2018-05-13T07:01:31.523Z,19.54
2018-05-13T07:03:59.062Z,19.42
2018-05-13T07:06:26.576Z,20.02
2018-05-13T07:08:54.127Z,20.53
2018-05-13T07:11:21.649Z,22.20
2018-05-13T07:13:49.324Z,23.03
2018-05-13T07:16:16.845Z,23.17
2018-05-13T07:18:44.361Z,23.57
2018-05-13T07:21:11.891Z,24.20
2018-05-13T07:23:39.410Z,23.36
2018-05-13T07:26:06.922Z,23.29
2018-05-13T07:28:34.438Z,24.28
2018-05-13T07:31:01.972Z,25.71
2018-05-13T07:33:29.501Z,25.20
2018-05-13T07:35:58.011Z,25.65
2018-05-13T07:38:25.528Z,25.48
2018-05-13T07:40:53.110Z,26.02
2018-05-13T07:43:20.651Z,25.21
2018-05-13T07:45:48.240Z,24.93
2018-05-13T07:48:15.806Z,25.21
2018-05-13T07:50:43.451Z,25.74
2018-05-13T07:53:11.830Z,26.18
2018-05-13T07:55:40.467Z,26.55
2018-05-13T07:58:07.995Z,25.82
2018-05-13T08:00:35.506Z,26.92
2018-05-13T08:03:03.089Z,27.15
2018-05-13T08:05:31.769Z,25.81
2018-05-13T08:07:59.347Z,25.48
2018-05-13T08:10:27.205Z,25.72
2018-05-13T08:12:55.027Z,26.24
2018-05-13T08:15:22.563Z,26.91
2018-05-13T08:17:50.137Z,25.87
2018-05-13T08:20:17.817Z,25.60
2018-05-13T08:22:45.400Z,26.22
2018-05-13T08:25:12.924Z,26.00
2018-05-13T08:27:40.467Z,26.09
2018-05-13T08:30:09.183Z,26.31
2018-05-13T08:32:36.833Z,26.28
2018-05-13T08:35:04.382Z,25.94
2018-05-13T08:37:31.895Z,27.21
2018-05-13T08:39:59.451Z,27.13
2018-05-13T08:42:27.008Z,28.37
2018-05-13T08:44:54.901Z,28.77
2018-05-13T08:47:22.505Z,27.71
2018-05-13T08:49:50.417Z,27.33
2018-05-13T08:52:18.203Z,26.51
2018-05-13T08:54:46.534Z,26.94
2018-05-13T08:57:14.843Z,27.07
2018-05-13T08:59:42.450Z,27.50
2018-05-13T09:02:10.055Z,25.98
2018-05-13T09:04:37.626Z,26.27
2018-05-13T09:07:05.209Z,26.48
2018-05-13T09:09:33.864Z,25.70
2018-05-13T09:12:02.653Z,27.34
2018-05-13T09:14:30.283Z,27.57
2018-05-13T09:16:57.715Z,26.38
2018-05-13T09:19:25.269Z,24.83
2018-05-13T09:21:52.816Z,23.79
2018-05-13T09:24:20.399Z,23.02
2018-05-13T09:26:47.951Z,24.92
2018-05-13T09:29:16.449Z,23.77
2018-05-13T09:31:44.061Z,24.02
2018-05-13T09:34:11.682Z,25.51
2018-05-13T09:36:39.205Z,24.86
2018-05-13T09:39:06.817Z,25.26
2018-05-13T09:41:34.407Z,27.20
2018-05-13T09:44:01.964Z,28.00
2018-05-13T09:46:29.716Z,28.50
2018-05-13T09:48:57.248Z,28.95
2018-05-13T09:51:24.844Z,30.08
2018-05-13T09:53:52.409Z,28.88
2018-05-13T09:56:19.947Z,29.31
2018-05-13T09:58:47.459Z,28.90
2018-05-13T10:01:15.032Z,29.10
2018-05-13T10:03:42.564Z,29.51
2018-05-13T10:06:10.127Z,28.85
2018-05-13T10:08:37.910Z,27.83
2018-05-13T10:11:06.056Z,28.42
2018-05-13T10:13:33.658Z,29.42
2018-05-13T10:16:01.427Z,27.68
2018-05-13T10:18:29.043Z,25.65
2018-05-13T10:20:56.815Z,27.11
2018-05-13T10:23:25.251Z,27.99
2018-05-13T10:25:52.879Z,28.71
2018-05-13T10:28:21.469Z,28.36
2018-05-13T10:30:49.532Z,28.82
2018-05-13T10:33:17.842Z,28.38
2018-05-13T10:35:49.059Z,28.95
2018-05-13T10:38:16.866Z,29.35
2018-05-13T10:40:44.417Z,30.06
2018-05-13T10:43:12.145Z,29.71
2018-05-13T10:45:41.123Z,29.80
2018-05-13T10:48:08.715Z,30.35
2018-05-13T10:50:36.320Z,30.34
2018-05-13T10:53:04.217Z,30.76
2018-05-13T10:55:31.736Z,30.42
2018-05-13T10:58:00.244Z,30.95
2018-05-13T11:00:27.868Z,31.50
2018-05-13T11:02:55.480Z,30.87
2018-05-13T11:05:23.299Z,32.37
2018-05-13T11:07:51.578Z,29.18
2018-05-13T11:10:19.176Z,28.76
2018-05-13T11:12:46.961Z,30.72
2018-05-13T11:15:14.900Z,30.36
2018-05-13T11:17:42.525Z,29.25
2018-05-13T11:20:10.083Z,28.97
2018-05-13T11:22:37.590Z,28.76
2018-05-13T11:25:05.173Z,27.23
2018-05-13T11:27:32.667Z,26.18
2018-05-13T11:30:00.216Z,25.66
2018-05-13T11:32:27.718Z,24.64
2018-05-13T11:34:55.265Z,24.17
2018-05-13T11:37:23.055Z,24.07
2018-05-13T11:39:50.658Z,24.40
2018-05-13T11:42:18.095Z,24.28
2018-05-13T11:44:45.597Z,23.61
2018-05-13T11:47:13.140Z,23.31
2018-05-13T11:49:40.647Z,22.80
2018-05-13T11:52:08.197Z,22.45
2018-05-13T11:54:35.704Z,22.02
2018-05-13T11:57:03.215Z,21.12
2018-05-13T11:59:30.727Z,20.52
2018-05-13T12:01:58.277Z,20.11
2018-05-13T12:04:25.784Z,19.84
2018-05-13T12:06:53.647Z,19.36
2018-05-13T12:09:21.196Z,18.74
2018-05-13T12:11:48.699Z,18.57
2018-05-13T12:14:16.198Z,18.60
2018-05-13T12:16:43.906Z,18.62
2018-05-13T12:19:11.420Z,18.76
2018-05-13T12:21:39.480Z,18.93
2018-05-13T12:24:06.983Z,18.98
2018-05-13T12:26:34.487Z,18.98
2018-05-13T12:29:02.051Z,19.96
2018-05-13T12:31:29.547Z,20.81
2018-05-13T12:33:57.091Z,21.06
2018-05-13T12:36:24.647Z,21.04
2018-05-13T12:38:52.158Z,20.20
2018-05-13T12:41:19.689Z,20.30
2018-05-13T12:43:47.236Z,20.35
2018-05-13T12:46:14.744Z,20.22
2018-05-13T12:48:42.259Z,20.35
2018-05-13T12:51:09.777Z,21.00
2018-05-13T12:53:37.303Z,21.56
2018-05-13T12:56:04.813Z,21.91
2018-05-13T12:58:32.432Z,21.77
2018-05-13T13:00:59.886Z,22.25
2018-05-13T13:03:27.395Z,21.74
2018-05-13T13:05:56.033Z,21.72
2018-05-13T13:08:25.414Z,21.93
2018-05-13T13:10:53.287Z,21.77
2018-05-13T13:13:20.915Z,21.75
2018-05-13T13:15:48.429Z,22.22
2018-05-13T13:18:15.950Z,22.47
2018-05-13T13:20:43.585Z,23.99
2018-05-13T13:23:11.315Z,23.93
2018-05-13T13:25:39.159Z,24.73
2018-05-13T13:28:06.678Z,23.80
2018-05-13T13:30:34.254Z,26.36
2018-05-13T13:33:01.814Z,24.14
2018-05-13T13:35:29.340Z,22.92
2018-05-13T13:37:56.851Z,22.33
2018-05-13T13:40:24.449Z,23.89
2018-05-13T13:42:51.990Z,23.25
2018-05-13T13:45:19.527Z,22.87
2018-05-13T13:47:47.035Z,22.68
2018-05-13T13:50:14.609Z,22.72
2018-05-13T13:52:42.173Z,22.56
2018-05-13T13:55:10.038Z,22.05
2018-05-13T13:57:37.795Z,21.91
2018-05-13T14:00:05.344Z,21.85
2018-05-13T14:02:32.851Z,21.85
2018-05-13T14:05:00.384Z,21.96
2018-05-13T14:07:27.981Z,22.23
2018-05-13T14:09:55.528Z,22.34
2018-05-13T14:12:23.043Z,22.39
2018-05-13T14:14:50.588Z,22.53
2018-05-13T14:17:18.130Z,22.57
2018-05-13T14:19:46.306Z,22.31
2018-05-13T14:22:13.844Z,22.06
2018-05-13T14:24:41.390Z,21.99
2018-05-13T14:27:08.926Z,21.73
2018-05-13T14:29:36.439Z,21.71
2018-05-13T14:32:03.943Z,21.26
2018-05-13T14:34:31.444Z,21.10
2018-05-13T14:36:58.967Z,20.47
2018-05-13T14:39:26.514Z,20.42
2018-05-13T14:41:54.065Z,20.70
2018-05-13T14:44:21.584Z,21.04
2018-05-13T14:46:49.088Z,21.18
2018-05-13T14:49:16.600Z,21.05
2018-05-13T14:51:44.128Z,20.91
2018-05-13T14:54:11.629Z,21.09
2018-05-13T14:56:39.192Z,21.10
2018-05-13T14:59:06.747Z,21.02
2018-05-13T15:01:34.404Z,21.08
2018-05-13T15:04:01.948Z,21.10
2018-05-13T15:06:29.501Z,21.01
2018-05-13T15:08:57.271Z,20.98
2018-05-13T15:11:24.783Z,20.93
2018-05-13T15:13:52.286Z,21.04
2018-05-13T15:16:19.822Z,21.22
2018-05-13T15:18:47.368Z,21.32
2018-05-13T15:21:15.866Z,21.31
2018-05-13T15:23:43.641Z,21.21
2018-05-13T15:26:11.384Z,21.17
2018-05-13T15:28:38.915Z,21.09
2018-05-13T15:31:06.476Z,21.01
2018-05-13T15:33:34.210Z,21.17
2018-05-13T15:36:01.786Z,21.04
2018-05-13T15:38:29.310Z,20.77
2018-05-13T15:40:59.864Z,20.65
2018-05-13T15:43:27.429Z,20.64
2018-05-13T15:45:54.899Z,20.66
2018-05-13T15:48:22.437Z,20.24
2018-05-13T15:50:50.027Z,20.37
2018-05-13T15:53:17.611Z,20.30
2018-05-13T15:55:45.167Z,20.18
2018-05-13T15:58:12.724Z,20.06
2018-05-13T16:00:40.975Z,20.29
2018-05-13T16:03:08.476Z,20.29
2018-05-13T16:05:36.693Z,20.22
2018-05-13T16:08:05.039Z,20.18
2018-05-13T16:10:32.534Z,20.05
2018-05-13T16:13:00.045Z,20.08
2018-05-13T16:15:27.583Z,20.09
2018-05-13T16:17:55.135Z,20.11
2018-05-13T16:20:22.649Z,19.87
2018-05-13T16:22:50.163Z,19.90
2018-05-13T16:25:18.607Z,19.98
2018-05-13T16:27:46.195Z,20.05
2018-05-13T16:30:13.789Z,20.12
2018-05-13T16:32:41.361Z,20.03
2018-05-13T16:35:08.911Z,19.98
2018-05-13T16:37:36.419Z,20.01
2018-05-13T16:40:03.985Z,19.90
2018-05-13T16:42:31.541Z,19.88
2018-05-13T16:44:59.119Z,19.73
2018-05-13T16:47:26.698Z,19.67
2018-05-13T16:49:54.230Z,19.77
2018-05-13T16:52:21.936Z,19.56
2018-05-13T16:54:49.500Z,19.52
2018-05-13T16:57:17.052Z,19.81
2018-05-13T16:59:44.589Z,19.72
2018-05-13T17:02:12.100Z,19.66
2018-05-13T17:04:39.609Z,19.58
2018-05-13T17:07:07.108Z,19.44
2018-05-13T17:09:34.672Z,19.13
2018-05-13T17:12:02.200Z,19.13
2018-05-13T17:14:29.728Z,19.11
2018-05-13T17:16:57.237Z,19.12
2018-05-13T17:19:24.744Z,18.89
2018-05-13T17:21:52.289Z,18.84
2018-05-13T17:24:19.808Z,18.78
2018-05-13T17:26:47.308Z,18.53
2018-05-13T17:29:14.842Z,18.48
2018-05-13T17:31:42.356Z,18.56
2018-05-13T17:34:09.905Z,18.69
2018-05-13T17:36:37.385Z,18.78
2018-05-13T17:39:04.942Z,18.74
2018-05-13T17:41:32.459Z,18.52
2018-05-13T17:44:00.012Z,18.57
2018-05-13T17:46:27.596Z,18.67
2018-05-13T17:48:55.177Z,18.58
2018-05-13T17:51:22.732Z,18.28
2018-05-13T17:53:50.243Z,18.36
2018-05-13T17:56:17.805Z,18.38
2018-05-13T17:58:45.392Z,18.37
2018-05-13T18:01:12.956Z,18.39
2018-05-13T18:03:40.552Z,18.46
2018-05-13T18:06:08.275Z,18.46
2018-05-13T18:08:35.828Z,18.25
2018-05-13T18:11:04.298Z,18.20
2018-05-13T18:13:31.855Z,18.42
2018-05-13T18:15:59.823Z,18.58
2018-05-13T18:18:27.324Z,18.67
2018-05-13T18:20:54.849Z,18.69
2018-05-13T18:23:22.484Z,18.70
2018-05-13T18:25:49.935Z,18.52
2018-05-13T18:28:17.487Z,18.30
2018-05-13T18:30:45.073Z,18.17
2018-05-13T18:33:12.654Z,17.91
2018-05-13T18:35:41.120Z,17.75
2018-05-13T18:38:08.666Z,17.51
2018-05-13T18:40:36.192Z,17.34
2018-05-13T18:43:03.700Z,17.39
2018-05-13T18:45:31.364Z,17.50
2018-05-13T18:47:58.871Z,17.63
2018-05-13T18:50:26.420Z,17.61
2018-05-13T18:52:53.961Z,17.80
2018-05-13T18:55:21.499Z,17.74
2018-05-13T18:57:49.031Z,17.78
2018-05-13T19:00:16.526Z,17.85
2018-05-13T19:02:44.043Z,17.75
2018-05-13T19:05:12.354Z,17.91
2018-05-13T19:07:39.851Z,17.97
2018-05-13T19:10:07.379Z,17.86
2018-05-13T19:12:34.940Z,17.62
2018-05-13T19:15:02.732Z,17.62
2018-05-13T19:17:30.240Z,17.53
2018-05-13T19:19:57.785Z,17.41
2018-05-13T19:22:25.298Z,17.37
2018-05-13T19:24:53.378Z,17.35
2018-05-13T19:27:21.174Z,17.33
2018-05-13T19:29:48.723Z,17.50
2018-05-13T19:32:16.223Z,17.42
2018-05-13T19:34:43.751Z,17.42
2018-05-13T19:37:11.327Z,17.44
2018-05-13T19:39:38.882Z,17.31
2018-05-13T19:42:06.417Z,17.27
2018-05-13T19:44:33.927Z,17.27
2018-05-13T19:47:01.433Z,17.21
2018-05-13T19:49:28.946Z,17.17
2018-05-13T19:51:56.539Z,17.13
2018-05-13T19:54:24.071Z,17.13
2018-05-13T19:56:51.615Z,17.11
2018-05-13T19:59:19.123Z,17.08
2018-05-13T20:01:46.627Z,17.12
2018-05-13T20:06:47.831Z,17.04
2018-05-13T20:09:15.443Z,17.19
2018-05-13T20:11:42.900Z,17.19
2018-05-13T20:14:10.399Z,17.10
2018-05-13T20:16:37.900Z,16.88
2018-05-13T20:19:05.405Z,16.88
2018-05-13T20:21:32.994Z,16.84
2018-05-13T20:24:00.499Z,16.91
2018-05-13T20:26:28.040Z,17.03
2018-05-13T20:28:55.545Z,17.12
2018-05-13T20:31:23.083Z,17.15
2018-05-13T20:33:50.577Z,17.19
2018-05-13T20:36:18.076Z,17.19
2018-05-13T20:38:45.630Z,17.22
2018-05-13T20:41:13.189Z,17.03
2018-05-13T20:43:40.702Z,16.93
2018-05-13T20:46:08.216Z,16.91
2018-05-13T20:48:35.711Z,16.81
2018-05-13T20:51:03.277Z,16.83
2018-05-13T20:53:30.805Z,16.82
2018-05-13T20:55:58.340Z,16.88
2018-05-13T20:58:25.886Z,16.84
2018-05-13T21:00:53.429Z,16.72
2018-05-13T21:03:20.953Z,16.64
2018-05-13T21:05:48.468Z,16.53
2018-05-13T21:08:16.505Z,16.50
2018-05-13T21:10:44.118Z,16.58
2018-05-13T21:13:11.684Z,16.57
2018-05-13T21:15:39.227Z,16.70
2018-05-13T21:18:06.778Z,16.76
2018-05-13T21:20:34.317Z,16.77
2018-05-13T21:23:01.848Z,16.78
2018-05-13T21:25:29.386Z,16.68
2018-05-13T21:27:56.945Z,16.83
2018-05-13T21:30:24.502Z,16.83
2018-05-13T21:32:52.311Z,16.70
2018-05-13T21:35:19.847Z,16.64
2018-05-13T21:37:47.375Z,16.59
2018-05-13T21:40:14.903Z,16.44
2018-05-13T21:42:42.437Z,16.54
2018-05-13T21:45:09.963Z,16.49
2018-05-13T21:47:37.480Z,16.61
2018-05-13T21:50:05.026Z,16.50
2018-05-13T21:52:32.573Z,16.54
2018-05-13T21:55:00.109Z,16.41
2018-05-13T21:57:27.645Z,16.39
2018-05-13T21:59:55.193Z,16.32
2018-05-13T22:02:22.716Z,16.38
2018-05-13T22:04:59.235Z,16.40
2018-05-13T22:07:26.754Z,16.36
2018-05-13T22:09:54.274Z,16.28
2018-05-13T22:12:21.803Z,16.15
2018-05-13T22:14:49.349Z,16.02
2018-05-13T22:17:16.937Z,16.11
2018-05-13T22:19:44.435Z,16.13
2018-05-13T22:22:11.974Z,16.08
2018-05-13T22:24:39.505Z,16.11
2018-05-13T22:27:07.027Z,16.19
2018-05-13T22:29:34.573Z,16.10
2018-05-13T22:32:02.092Z,16.21
2018-05-13T22:34:29.626Z,16.39
2018-05-13T22:36:57.150Z,16.41
2018-05-13T22:39:24.672Z,16.54
2018-05-13T22:41:52.198Z,16.41
2018-05-13T22:44:19.712Z,16.38
2018-05-13T22:46:47.230Z,16.44
2018-05-13T22:49:14.755Z,16.34
2018-05-13T22:51:42.914Z,16.33
2018-05-13T22:54:10.479Z,16.37
2018-05-13T22:56:38.005Z,16.43
2018-05-13T22:59:05.582Z,16.35
2018-05-13T23:01:33.110Z,16.37
2018-05-13T23:04:00.639Z,16.35
2018-05-13T23:06:30.953Z,16.33
2018-05-13T23:08:58.485Z,16.29
2018-05-13T23:11:26.012Z,16.18
2018-05-13T23:13:53.536Z,16.10
2018-05-13T23:16:21.067Z,16.13
2018-05-13T23:18:48.591Z,16.03
2018-05-13T23:21:16.151Z,16.01
2018-05-13T23:23:43.691Z,16.10
2018-05-13T23:26:11.225Z,16.06
2018-05-13T23:28:38.853Z,16.07
2018-05-13T23:31:06.315Z,16.14
2018-05-13T23:33:33.837Z,16.18
2018-05-13T23:36:01.386Z,16.16
2018-05-13T23:38:28.917Z,16.12
2018-05-13T23:40:56.445Z,16.17
2018-05-13T23:43:24.028Z,16.22
2018-05-13T23:45:51.539Z,16.25
2018-05-13T23:48:19.067Z,16.36
2018-05-13T23:50:46.599Z,16.38
2018-05-13T23:53:14.135Z,16.39
2018-05-13T23:55:41.662Z,16.53
2018-05-13T23:58:09.196Z,16.57
